createdAt,value
2017-01-30T11:43:01.042Z,25
2017-01-30T11:45:43.076Z,25
2017-01-30T11:46:56.869Z,25
2017-01-30T11:48:10.495Z,25
2017-01-30T11:49:24.891Z,25
2017-01-30T11:50:39.351Z,25
2017-01-30T11:51:52.962Z,25
2017-01-30T11:53:35.441Z,25
2017-01-30T11:54:49.985Z,25
2017-01-30T11:56:04.910Z,30
2017-01-30T11:57:18.679Z,30
2017-01-30T11:58:33.854Z,30
2017-01-30T11:59:48.927Z,30
2017-01-30T12:01:03.047Z,30
2017-01-30T12:02:31.880Z,25
2017-01-30T12:04:00.541Z,25
2017-01-30T12:05:15.603Z,30
2017-01-30T12:06:29.667Z,30
2017-01-30T12:07:57.636Z,30
2017-01-30T12:09:11.359Z,40
2017-01-30T12:10:24.999Z,40
2017-01-30T12:11:39.139Z,40
2017-01-30T12:12:53.305Z,40
2017-01-30T12:14:06.225Z,40
2017-01-30T12:17:02.095Z,45
2017-01-30T12:18:15.670Z,45
2017-01-30T12:19:29.988Z,45
2017-01-30T12:20:44.106Z,45
2017-01-30T12:21:58.520Z,50
2017-01-30T12:23:12.671Z,55
2017-01-30T12:24:26.232Z,55
2017-01-30T12:25:40.452Z,55
2017-01-30T12:26:54.550Z,50
2017-01-30T12:29:36.204Z,65
2017-01-30T12:30:50.400Z,55
2017-01-30T12:32:04.584Z,50
2017-01-30T12:33:17.347Z,45
2017-01-30T12:34:45.294Z,40
2017-01-30T12:35:59.118Z,40
2017-01-30T12:37:12.332Z,55
2017-01-30T12:38:25.552Z,60
2017-01-30T12:39:39.375Z,65
2017-01-30T12:40:52.608Z,65
2017-01-30T12:42:06.450Z,55
2017-01-30T12:43:19.670Z,65
2017-01-30T12:44:32.892Z,65
2017-01-30T12:45:47.086Z,50
2017-01-30T12:47:00.922Z,60
2017-01-30T12:48:14.175Z,40
2017-01-30T12:49:28.009Z,60
2017-01-30T12:50:42.096Z,70
2017-01-30T12:51:54.705Z,75
2017-01-30T12:53:08.579Z,75
2017-01-30T12:54:21.808Z,45
2017-01-30T12:55:34.434Z,75
2017-01-30T12:56:48.614Z,75
2017-01-30T12:58:02.484Z,75
2017-01-30T12:59:16.321Z,80
2017-01-30T13:00:30.302Z,80
2017-01-30T13:01:58.244Z,75
2017-01-30T13:03:25.644Z,60
2017-01-30T13:04:39.534Z,50
2017-01-30T13:05:52.751Z,60
2017-01-30T13:07:05.969Z,60
2017-01-30T13:08:18.842Z,85
2017-01-30T13:09:32.683Z,90
2017-01-30T13:10:45.905Z,80
2017-01-30T13:11:59.986Z,90
2017-01-30T13:13:13.824Z,90
2017-01-30T13:14:27.650Z,80
2017-01-30T13:15:41.538Z,45
2017-01-30T13:16:55.617Z,60
2017-01-30T13:18:09.471Z,80
2017-01-30T13:21:04.362Z,75
2017-01-30T13:22:15.789Z,70
2017-01-30T13:23:29.627Z,70
2017-01-30T13:24:43.452Z,70
2017-01-30T13:25:57.298Z,70
2017-01-30T13:27:09.593Z,65
2017-01-30T13:29:51.148Z,70
2017-01-30T13:31:04.987Z,60
2017-01-30T13:32:18.207Z,65
2017-01-30T13:33:32.040Z,70
2017-01-30T13:36:26.825Z,45
2017-01-30T13:37:40.656Z,45
2017-01-30T13:38:53.874Z,70
2017-01-30T13:40:21.590Z,90
2017-01-30T13:41:34.811Z,70
2017-01-30T13:42:48.644Z,90
2017-01-30T13:44:01.860Z,85
2017-01-30T13:45:14.506Z,95
2017-01-30T13:46:28.339Z,95
2017-01-30T13:47:41.560Z,90
2017-01-30T13:48:55.390Z,90
2017-01-30T13:50:08.614Z,65
2017-01-30T13:51:22.441Z,80
2017-01-30T13:52:35.058Z,60
2017-01-30T13:53:48.886Z,80
2017-01-30T13:55:02.118Z,80
2017-01-30T13:56:15.956Z,85
2017-01-30T13:57:29.783Z,85
2017-01-30T13:58:43.619Z,80
2017-01-30T13:59:57.442Z,70
2017-01-30T14:01:11.298Z,80
2017-01-30T14:02:25.154Z,90
2017-01-30T14:03:38.396Z,75
2017-01-30T14:04:51.620Z,50
2017-01-30T14:06:05.452Z,40
2017-01-30T14:07:18.697Z,45
2017-01-30T14:08:32.553Z,45
2017-01-30T14:09:46.397Z,45
2017-01-30T14:11:00.260Z,90
2017-01-30T14:12:14.101Z,105
2017-01-30T14:13:27.951Z,45
2017-01-30T14:14:41.818Z,65
2017-01-30T14:15:55.054Z,75
2017-01-30T14:17:08.889Z,40
2017-01-30T14:18:22.736Z,35
2017-01-30T14:19:36.580Z,35
2017-01-30T14:20:50.430Z,85
2017-01-30T14:22:04.266Z,45
2017-01-30T14:23:16.879Z,80
2017-01-30T14:24:30.707Z,105
2017-01-30T14:25:44.535Z,50
2017-01-30T14:26:58.364Z,95
2017-01-30T14:28:12.196Z,95
2017-01-30T14:29:26.032Z,95
2017-01-30T14:30:40.222Z,95
2017-01-30T14:31:54.050Z,95
2017-01-30T14:33:07.882Z,95
2017-01-30T14:34:20.496Z,45
2017-01-30T14:35:34.347Z,50
2017-01-30T14:36:48.564Z,110
2017-01-30T14:38:01.792Z,100
2017-01-30T14:39:15.629Z,60
2017-01-30T14:40:29.470Z,105
2017-01-30T14:41:43.506Z,105
2017-01-30T14:42:57.350Z,110
2017-01-30T14:44:10.578Z,105
2017-01-30T14:45:24.417Z,105
2017-01-30T14:46:38.621Z,105
2017-01-30T14:47:52.472Z,105
2017-01-30T14:49:06.344Z,100
2017-01-30T14:50:20.184Z,100
2017-01-30T14:51:33.646Z,60
2017-01-30T14:52:47.484Z,55
2017-01-30T14:54:14.589Z,95
2017-01-30T14:55:28.425Z,105
2017-01-30T14:56:42.257Z,105
2017-01-30T14:57:56.298Z,105
2017-01-30T14:59:10.136Z,105
2017-01-30T15:00:23.975Z,105
2017-01-30T15:01:37.810Z,105
2017-01-30T15:02:51.639Z,105
2017-01-30T15:04:04.865Z,45
2017-01-30T15:05:17.480Z,45
2017-01-30T15:06:31.308Z,45
2017-01-30T15:07:45.140Z,40
2017-01-30T15:08:58.967Z,35
2017-01-30T15:10:12.845Z,50
2017-01-30T15:11:26.682Z,35
2017-01-30T15:12:40.510Z,30
2017-01-30T15:13:54.689Z,30
2017-01-30T15:15:20.575Z,30
2017-01-30T15:18:01.502Z,35
2017-01-30T15:19:15.530Z,35
2017-01-30T15:20:29.357Z,40
2017-01-30T15:21:42.573Z,45
2017-01-30T15:22:56.402Z,45
2017-01-30T15:24:09.624Z,45
2017-01-30T15:25:23.450Z,45
2017-01-30T15:27:05.017Z,45
2017-01-30T15:28:18.842Z,45
2017-01-30T15:29:32.666Z,40
2017-01-30T15:31:00.362Z,40
2017-01-30T15:32:14.200Z,45
2017-01-30T15:33:28.026Z,90
2017-01-30T15:34:41.253Z,90
2017-01-30T15:35:55.098Z,70
2017-01-30T15:37:08.936Z,45
2017-01-30T15:38:22.159Z,45
2017-01-30T15:39:36.339Z,45
2017-01-30T15:40:49.563Z,45
2017-01-30T15:42:02.809Z,40
2017-01-30T15:43:16.652Z,40
2017-01-30T15:44:30.489Z,40
2017-01-30T15:45:56.516Z,40
2017-01-30T15:47:09.755Z,40
2017-01-30T15:48:23.579Z,40
2017-01-30T15:49:51.850Z,45
2017-01-30T15:51:05.685Z,45
2017-01-30T15:52:19.532Z,45
2017-01-30T15:53:33.370Z,50
2017-01-30T15:54:47.201Z,60
2017-01-30T15:56:01.027Z,60
2017-01-30T15:57:28.721Z,40
2017-01-30T15:58:42.547Z,40
2017-01-30T15:59:56.383Z,35
2017-01-30T16:01:10.211Z,40
2017-01-30T16:02:24.054Z,45
2017-01-30T16:03:37.271Z,40
2017-01-30T16:04:51.104Z,40
2017-01-30T16:06:04.928Z,40
2017-01-30T16:07:18.144Z,50
2017-01-30T16:08:31.966Z,55
2017-01-30T16:09:45.795Z,70
2017-01-30T16:10:59.623Z,70
2017-01-30T16:12:12.843Z,55
2017-01-30T16:13:26.061Z,55
2017-01-30T16:16:07.188Z,50
2017-01-30T16:17:20.413Z,45
2017-01-30T16:18:34.236Z,40
2017-01-30T16:19:48.093Z,40
2017-01-30T16:21:02.273Z,35
2017-01-30T16:22:16.097Z,35
2017-01-30T16:23:29.318Z,35
2017-01-30T16:24:43.149Z,35
2017-01-30T16:25:56.374Z,35
2017-01-30T16:27:10.399Z,35
2017-01-30T16:28:24.222Z,35
2017-01-30T16:29:38.048Z,30
2017-01-30T16:30:51.890Z,30
2017-01-30T16:32:05.709Z,35
2017-01-30T16:33:18.952Z,30
2017-01-30T16:34:32.773Z,30
2017-01-30T16:35:46.595Z,30
2017-01-30T16:36:59.817Z,30
2017-01-30T16:38:27.510Z,30
2017-01-30T16:39:41.358Z,30
2017-01-30T16:40:53.968Z,30
2017-01-30T16:42:35.549Z,30
2017-01-30T16:43:49.378Z,30
2017-01-30T16:45:03.232Z,30
2017-01-30T16:46:16.450Z,30
2017-01-30T16:47:30.514Z,30
2017-01-30T16:48:44.690Z,25
2017-01-30T16:50:12.389Z,25
2017-01-30T16:52:53.507Z,25
2017-01-30T16:54:07.338Z,25
2017-01-30T16:55:20.569Z,25
2017-01-30T16:56:34.413Z,20
2017-01-30T16:57:47.030Z,20
2017-01-30T16:59:00.856Z,20
2017-01-30T17:00:13.479Z,20
2017-01-30T17:01:27.306Z,20
2017-01-30T17:02:41.137Z,20
2017-01-30T17:03:54.963Z,20
2017-01-30T17:05:08.795Z,20
2017-01-30T17:06:21.412Z,20
2017-01-30T17:07:35.240Z,20
2017-01-30T17:08:48.463Z,20
2017-01-30T17:10:02.289Z,15
2017-01-30T17:11:15.505Z,15
2017-01-30T17:12:29.329Z,15
2017-01-30T17:13:57.021Z,15
2017-01-30T17:15:10.238Z,15
2017-01-30T17:16:24.083Z,10
2017-01-30T17:19:05.604Z,10
2017-01-30T17:20:19.424Z,10
2017-01-30T17:21:33.243Z,10
2017-01-30T17:23:00.936Z,10
2017-01-30T17:24:14.756Z,10
2017-01-30T17:25:28.789Z,10
2017-01-30T17:26:42.611Z,10
2017-01-30T17:27:55.829Z,10
2017-01-30T17:29:09.055Z,5
2017-01-30T17:30:22.882Z,5
2017-01-30T17:31:36.711Z,5
2017-01-30T17:32:50.534Z,5
2017-01-30T17:34:04.362Z,5
2017-01-30T17:35:17.829Z,5
2017-01-30T17:36:31.654Z,5
2017-01-30T17:37:45.475Z,5
2017-01-30T17:38:59.296Z,5
2017-01-30T17:41:40.454Z,5
2017-01-30T17:42:54.279Z,5
2017-01-30T17:44:08.103Z,5
2017-01-30T17:45:21.934Z,5
2017-01-30T17:46:35.758Z,5
2017-01-30T17:47:49.582Z,5
2017-01-30T17:49:02.814Z,5
2017-01-30T17:50:16.078Z,5
2017-01-30T17:51:29.900Z,5
2017-01-30T17:52:43.115Z,5
2017-01-30T17:53:56.948Z,5
2017-01-30T17:55:10.177Z,5
2017-01-30T17:56:24.011Z,5
2017-01-30T17:57:37.832Z,5
2017-01-30T17:58:51.048Z,5
2017-01-30T18:00:04.870Z,5
2017-01-30T18:01:18.089Z,5
2017-01-30T18:02:31.917Z,5
2017-01-30T18:03:45.139Z,5
2017-01-30T18:06:26.657Z,5
2017-01-30T18:08:08.218Z,5
2017-01-30T18:09:21.432Z,5
2017-01-30T18:10:34.672Z,5
2017-01-30T18:11:47.890Z,5
2017-01-30T18:13:01.709Z,5
2017-01-30T18:14:14.932Z,5
2017-01-30T18:15:28.767Z,5
2017-01-30T18:16:42.596Z,5
2017-01-30T18:17:56.418Z,5
2017-01-30T18:19:10.253Z,5
2017-01-30T18:20:23.669Z,5
2017-01-30T18:21:37.509Z,5
2017-01-30T18:22:50.725Z,5
2017-01-30T18:24:04.553Z,5
2017-01-30T18:25:18.372Z,5
2017-01-30T18:26:32.220Z,5
2017-01-30T18:27:45.433Z,5
2017-01-30T18:28:59.292Z,5
2017-01-30T18:30:12.514Z,5
2017-01-30T18:31:25.731Z,5
2017-01-30T18:32:53.419Z,5
2017-01-30T18:35:34.933Z,5
2017-01-30T18:36:48.755Z,5
2017-01-30T18:38:02.634Z,5
2017-01-30T18:39:15.875Z,5
2017-01-30T18:40:29.712Z,5
2017-01-30T18:41:56.851Z,10
2017-01-30T18:43:10.731Z,10
2017-01-30T18:44:24.577Z,10
2017-01-30T18:45:37.802Z,10
2017-01-30T18:46:51.020Z,10
2017-01-30T18:48:04.864Z,10
2017-01-30T18:49:18.692Z,10
2017-01-30T18:50:32.511Z,10
2017-01-30T18:51:45.724Z,10
2017-01-30T18:52:59.544Z,10
2017-01-30T18:54:27.230Z,10
2017-01-30T18:55:39.841Z,10
2017-01-30T18:56:53.657Z,10
2017-01-30T18:58:07.731Z,10
2017-01-30T18:59:21.552Z,10
2017-01-30T19:00:35.374Z,10
2017-01-30T19:01:49.196Z,10
2017-01-30T19:03:03.267Z,10
2017-01-30T19:04:30.960Z,5
2017-01-30T19:05:44.789Z,10
2017-01-30T19:06:58.611Z,5
2017-01-30T19:08:26.305Z,10
2017-01-30T19:09:40.123Z,10
2017-01-30T19:10:53.337Z,5
2017-01-30T19:12:07.162Z,5
2017-01-30T19:13:19.773Z,5
2017-01-30T19:14:33.591Z,5
2017-01-30T19:15:47.408Z,5
2017-01-30T19:17:00.623Z,5
2017-01-30T19:18:13.234Z,5
2017-01-30T19:19:27.056Z,5
2017-01-30T19:20:40.876Z,5
2017-01-30T19:21:54.706Z,5
2017-01-30T19:23:08.532Z,5
2017-01-30T19:24:21.748Z,5
2017-01-30T19:25:34.361Z,5
2017-01-30T19:26:48.192Z,5
2017-01-30T19:28:15.903Z,5
2017-01-30T19:29:29.728Z,10
2017-01-30T19:30:43.548Z,10
2017-01-30T19:31:57.370Z,10
2017-01-30T19:33:11.186Z,15
2017-01-30T19:34:38.874Z,15
2017-01-30T19:35:52.698Z,15
2017-01-30T19:37:06.517Z,15
2017-01-30T19:38:19.735Z,20
2017-01-30T19:41:01.243Z,20
2017-01-30T19:42:15.062Z,20
2017-01-30T19:43:28.886Z,20
2017-01-30T19:44:42.102Z,20
2017-01-30T19:45:55.316Z,20
2017-01-30T19:47:09.134Z,25
2017-01-30T19:48:21.738Z,20
2017-01-30T19:49:35.555Z,25
2017-01-30T19:50:49.011Z,25
2017-01-30T19:52:02.837Z,20
2017-01-30T19:53:16.052Z,20
2017-01-30T19:54:29.877Z,25
2017-01-30T19:55:43.697Z,30
2017-01-30T19:56:56.911Z,35
2017-01-30T19:58:10.733Z,35
2017-01-30T19:59:24.548Z,30
2017-01-30T20:02:06.055Z,20
2017-01-30T20:03:19.270Z,20
2017-01-30T20:04:33.091Z,20
2017-01-30T20:05:46.918Z,20
2017-01-30T20:07:00.743Z,20
2017-01-30T20:08:13.961Z,20
2017-01-30T20:09:27.786Z,20
2017-01-30T20:10:41.010Z,15
2017-01-30T20:11:54.843Z,20
2017-01-30T20:13:08.926Z,20
2017-01-30T20:14:36.626Z,20
2017-01-30T20:15:50.464Z,15
2017-01-30T20:18:31.369Z,15
2017-01-30T20:19:45.191Z,10
2017-01-30T20:20:59.015Z,10
2017-01-30T20:22:26.704Z,10
2017-01-30T20:23:40.782Z,10
2017-01-30T20:24:53.996Z,10
2017-01-30T20:26:06.604Z,10
2017-01-30T20:27:19.848Z,10
2017-01-30T20:28:33.888Z,10
2017-01-30T20:29:47.707Z,10
2017-01-30T20:31:01.535Z,10
2017-01-30T20:32:15.356Z,10
2017-01-30T20:33:29.175Z,10
2017-01-30T20:34:42.391Z,10
2017-01-30T20:35:56.215Z,5
2017-01-30T20:37:23.904Z,5
2017-01-30T20:38:37.724Z,5
2017-01-30T20:39:50.937Z,5
2017-01-30T20:41:04.761Z,5
2017-01-30T20:42:18.588Z,5
2017-01-30T20:43:31.823Z,5
2017-01-30T20:46:27.224Z,5
2017-01-30T20:47:41.057Z,0
2017-01-30T20:48:54.275Z,0
2017-01-30T20:50:08.118Z,0
2017-01-30T20:51:21.957Z,0
2017-01-30T20:52:35.804Z,5
2017-01-30T20:53:49.633Z,5
2017-01-30T20:55:03.678Z,5
2017-01-30T20:56:31.378Z,5
2017-01-30T20:57:45.223Z,5
2017-01-30T20:58:59.064Z,5
2017-01-30T21:00:12.299Z,5
2017-01-30T21:01:26.137Z,5
2017-01-30T21:02:39.990Z,5
2017-01-30T21:03:54.031Z,5
2017-01-30T21:05:07.867Z,5
2017-01-30T21:06:20.482Z,5
2017-01-30T21:07:34.309Z,5
2017-01-30T21:08:48.124Z,5
2017-01-30T21:10:01.953Z,5
2017-01-30T21:11:16.030Z,5
2017-01-30T21:12:29.856Z,5
2017-01-30T21:13:43.674Z,5
2017-01-30T21:14:57.493Z,5
2017-01-30T21:16:10.919Z,5
2017-01-30T21:17:24.735Z,5
2017-01-30T21:18:38.555Z,0
2017-01-30T21:19:52.380Z,0
2017-01-30T21:21:06.198Z,0
2017-01-30T21:22:33.897Z,0
2017-01-30T21:23:47.717Z,0
2017-01-30T21:25:01.542Z,0
2017-01-30T21:26:29.234Z,0
2017-01-30T21:27:43.056Z,0
2017-01-30T21:28:56.269Z,0
2017-01-30T21:30:10.088Z,0
2017-01-30T21:31:23.905Z,0
2017-01-30T21:32:37.718Z,0
2017-01-30T21:33:50.928Z,0
2017-01-30T21:35:04.751Z,0
2017-01-30T21:36:18.823Z,0
2017-01-30T21:37:32.043Z,0
2017-01-30T21:38:44.648Z,0
2017-01-30T21:39:58.467Z,0
2017-01-30T21:41:11.680Z,0
2017-01-30T21:42:25.508Z,0
2017-01-30T21:43:38.720Z,0
2017-01-30T21:44:52.540Z,0
2017-01-30T21:46:05.757Z,0
2017-01-30T21:47:19.775Z,0
2017-01-30T21:48:33.591Z,0
2017-01-30T21:49:47.409Z,0
2017-01-30T21:51:01.230Z,0
2017-01-30T21:52:15.050Z,0
2017-01-30T21:53:28.872Z,0
2017-01-30T21:54:42.692Z,0
2017-01-30T21:55:55.914Z,0
2017-01-30T21:57:09.759Z,0
2017-01-30T21:58:23.576Z,0
2017-01-30T21:59:37.393Z,0
2017-01-30T22:00:51.209Z,0
2017-01-30T22:02:05.025Z,0
2017-01-30T22:03:19.041Z,0
2017-01-30T22:04:32.856Z,0
2017-01-30T22:06:00.542Z,0
2017-01-30T22:07:14.362Z,0
2017-01-30T22:08:26.969Z,0
2017-01-30T22:09:40.788Z,0
2017-01-30T22:10:54.609Z,0
2017-01-30T22:12:08.427Z,0
2017-01-30T22:13:21.035Z,0
2017-01-30T22:14:34.246Z,0
2017-01-30T22:15:48.062Z,0
2017-01-30T22:17:01.884Z,0
2017-01-30T22:18:15.740Z,0
2017-01-30T22:19:29.811Z,0
2017-01-30T22:20:43.624Z,0
2017-01-30T22:21:57.450Z,0
2017-01-30T22:23:11.272Z,0
2017-01-30T22:26:05.452Z,0
2017-01-30T22:27:19.277Z,0
2017-01-30T22:28:33.090Z,0
2017-01-30T22:29:46.300Z,0
2017-01-30T22:31:00.121Z,0
2017-01-30T22:32:12.725Z,0
2017-01-30T22:33:25.325Z,0
2017-01-30T22:34:38.540Z,0
2017-01-30T22:35:52.359Z,0
2017-01-30T22:37:06.184Z,0
2017-01-30T22:38:20.006Z,0
2017-01-30T22:39:33.824Z,0
2017-01-30T22:40:47.997Z,0
2017-01-30T22:42:01.820Z,0
2017-01-30T22:43:15.033Z,0
2017-01-30T22:44:28.851Z,0
2017-01-30T22:45:42.689Z,0
2017-01-30T22:46:56.525Z,0
2017-01-30T22:48:10.344Z,0
2017-01-30T22:49:37.432Z,0
2017-01-30T22:50:51.479Z,0
2017-01-30T22:52:05.320Z,0
2017-01-30T22:53:18.547Z,0
2017-01-30T22:54:32.380Z,0
2017-01-30T22:55:46.483Z,0
2017-01-30T22:57:00.319Z,0
2017-01-30T22:58:14.150Z,0
2017-01-30T22:59:27.980Z,0
2017-01-30T23:00:41.804Z,0
2017-01-30T23:01:55.620Z,0
2017-01-30T23:03:09.440Z,0
2017-01-30T23:04:23.266Z,0
2017-01-30T23:05:37.081Z,0
2017-01-30T23:06:50.898Z,0
2017-01-30T23:08:04.717Z,0
2017-01-30T23:09:18.538Z,0
2017-01-30T23:10:32.357Z,0
2017-01-30T23:11:46.178Z,0
2017-01-30T23:12:59.996Z,0
2017-01-30T23:14:13.214Z,0
2017-01-30T23:15:27.031Z,0
2017-01-30T23:16:40.846Z,0
2017-01-30T23:17:54.676Z,0
2017-01-30T23:19:08.496Z,0
2017-01-30T23:20:22.314Z,0
2017-01-30T23:21:36.141Z,0
2017-01-30T23:22:49.956Z,0
2017-01-30T23:24:03.780Z,0
2017-01-30T23:25:17.596Z,0
2017-01-30T23:26:31.411Z,0
2017-01-30T23:27:45.433Z,0
2017-01-30T23:28:59.249Z,0
2017-01-30T23:30:12.467Z,0
2017-01-30T23:31:26.288Z,0
2017-01-30T23:32:40.109Z,0
2017-01-30T23:33:53.941Z,0
2017-01-30T23:35:07.763Z,0
2017-01-30T23:36:20.980Z,0
2017-01-30T23:37:34.193Z,0
2017-01-30T23:38:48.223Z,0
2017-01-30T23:40:02.042Z,0
2017-01-30T23:41:15.860Z,0
2017-01-30T23:42:29.675Z,0
2017-01-30T23:43:43.496Z,0
2017-01-30T23:44:57.318Z,0
2017-01-30T23:46:25.007Z,0
2017-01-30T23:47:38.824Z,0
2017-01-30T23:48:52.892Z,0
2017-01-30T23:50:06.723Z,0
2017-01-30T23:51:19.331Z,0
2017-01-30T23:52:33.149Z,0
2017-01-30T23:53:46.967Z,0
2017-01-30T23:55:00.782Z,0
2017-01-30T23:56:14.596Z,0
2017-01-30T23:57:28.420Z,0
2017-01-30T23:58:42.248Z,0
2017-01-30T23:59:55.465Z,0
